Time;durP1;ratioP1;P1;durP2;ratioP2;P2;SDS_P1;SDS_P2;PMS_P1;PMS_P2;Temp;Humidity;BMP_temperature;BMP_pressure;BME280_temperature;BME280_humidity;BME280_pressure;Samples;Min_cycle;Max_cycle;Signal;HPM_P1;HPM_P2
2024/01/22 00:00:10;;;;;;;3.70;0.90;;;;;;;;;;5260831;28;20437;-79
2024/01/22 00:02:41;;;;;;;3.40;0.70;;;;;;;;;;5261214;28;20027;-79
2024/01/22 00:05:12;;;;;;;1.95;0.80;;;;;;;;;;5261134;28;20029;-78
2024/01/22 00:07:43;;;;;;;4.15;1.02;;;;;;;;;;5260221;28;20027;-78
2024/01/22 00:10:15;;;;;;;3.92;1.00;;;;;;;;;;5260719;28;20539;-78
2024/01/22 00:12:46;;;;;;;4.13;1.08;;;;;;;;;;5261172;28;20545;-78
2024/01/22 00:15:17;;;;;;;3.85;0.90;;;;;;;;;;5260400;28;20056;-77
2024/01/22 00:17:48;;;;;;;3.35;1.15;;;;;;;;;;5261085;28;20103;-78
2024/01/22 00:20:20;;;;;;;2.58;0.90;;;;;;;;;;5261092;28;20017;-80
2024/01/22 00:22:51;;;;;;;3.20;0.80;;;;;;;;;;5260429;28;20052;-80
2024/01/22 00:25:22;;;;;;;2.90;0.80;;;;;;;;;;5260758;28;20028;-80
2024/01/22 00:27:54;;;;;;;2.80;0.70;;;;;;;;;;5260447;28;20025;-81
2024/01/22 00:30:25;;;;;;;2.55;0.77;;;;;;;;;;5260467;28;20029;-79
2024/01/22 00:32:56;;;;;;;2.53;0.70;;;;;;;;;;5260972;28;20020;-80
2024/01/22 00:35:27;;;;;;;3.55;0.95;;;;;;;;;;5260054;28;20039;-80
2024/01/22 00:37:58;;;;;;;3.88;0.80;;;;;;;;;;5260953;28;20017;-79
2024/01/22 00:40:30;;;;;;;2.58;0.80;;;;;;;;;;5260805;28;20037;-81
2024/01/22 00:43:01;;;;;;;3.72;0.70;;;;;;;;;;5259954;28;20217;-80
2024/01/22 00:45:32;;;;;;;2.30;0.60;;;;;;;;;;5260637;28;20071;-80
2024/01/22 00:48:03;;;;;;;1.63;0.60;;;;;;;;;;5261008;28;20419;-80
2024/01/22 00:50:34;;;;;;;3.47;0.77;;;;;;;;;;5260257;28;20029;-80
2024/01/22 00:53:06;;;;;;;3.47;0.65;;;;;;;;;;5260479;28;20049;-80
2024/01/22 00:55:37;;;;;;;1.90;0.70;;;;;;;;;;5260775;28;20066;-80
2024/01/22 00:58:08;;;;;;;3.92;0.80;;;;;;;;;;5260093;28;20025;-80
2024/01/22 01:00:39;;;;;;;2.33;0.70;;;;;;;;;;5260629;28;20020;-80
2024/01/22 01:03:10;;;;;;;3.83;0.60;;;;;;;;;;5259805;28;20021;-81
2024/01/22 01:05:42;;;;;;;1.88;0.60;;;;;;;;;;5260534;28;20060;-79
2024/01/22 01:08:13;;;;;;;1.75;0.50;;;;;;;;;;5260653;28;20147;-79
2024/01/22 01:10:44;;;;;;;1.58;0.52;;;;;;;;;;5259916;28;20029;-79
2024/01/22 01:13:15;;;;;;;2.84;0.76;;;;;;;;;;5260510;28;20100;-79
2024/01/22 01:15:46;;;;;;;2.50;0.52;;;;;;;;;;5260553;28;20032;-79
2024/01/22 01:18:18;;;;;;;2.70;0.60;;;;;;;;;;5259615;28;20028;-80
2024/01/22 01:20:49;;;;;;;2.33;0.52;;;;;;;;;;5260468;28;20028;-79
2024/01/22 01:23:20;;;;;;;1.80;0.52;;;;;;;;;;5260538;28;20147;-79
2024/01/22 01:25:51;;;;;;;2.95;0.50;;;;;;;;;;5259824;28;20090;-80
2024/01/22 01:28:22;;;;;;;2.60;0.50;;;;;;;;;;5259857;28;20024;-80
2024/01/22 01:30:53;;;;;;;2.83;0.50;;;;;;;;;;5260824;28;20033;-79
2024/01/22 01:33:25;;;;;;;2.63;0.57;;;;;;;;;;5259343;28;20025;-79
2024/01/22 01:35:56;;;;;;;1.42;0.47;;;;;;;;;;5260477;28;20009;-79
2024/01/22 01:38:27;;;;;;;2.05;0.40;;;;;;;;;;5259606;28;20464;-79
2024/01/22 01:40:58;;;;;;;1.48;0.50;;;;;;;;;;5263775;28;20017;-80
2024/01/22 01:43:29;;;;;;;1.23;0.40;;;;;;;;;;5264194;28;20383;-80
2024/01/22 01:46:01;;;;;;;0.85;0.30;;;;;;;;;;5263346;28;20044;-80
2024/01/22 01:48:32;;;;;;;0.90;0.40;;;;;;;;;;5264003;28;20051;-79
2024/01/22 01:51:04;;;;;;;1.65;0.52;;;;;;;;;;5263885;28;20029;-80
2024/01/22 01:53:35;;;;;;;1.15;0.40;;;;;;;;;;5262785;28;20049;-80
2024/01/22 01:56:07;;;;;;;1.65;0.45;;;;;;;;;;5264019;28;20464;-80
2024/01/22 01:58:38;;;;;;;2.30;0.50;;;;;;;;;;5263869;28;20037;-81
2024/01/22 02:01:09;;;;;;;1.70;0.40;;;;;;;;;;5263035;28;20032;-80
2024/01/22 02:03:40;;;;;;;2.15;0.50;;;;;;;;;;5263715;28;20071;-81
2024/01/22 02:06:12;;;;;;;1.50;0.40;;;;;;;;;;5262898;28;20063;-80
2024/01/22 02:08:50;;;;;;;2.22;0.52;;;;;;;;;;5262866;28;20063;-81
2024/01/22 02:11:24;;;;;;;1.42;0.50;;;;;;;;;;5263095;28;20021;-80
2024/01/22 02:13:56;;;;;;;1.50;0.60;;;;;;;;;;5262992;28;20017;-80
2024/01/22 02:16:27;;;;;;;1.80;0.50;;;;;;;;;;5263112;28;20039;-80
2024/01/22 02:18:58;;;;;;;1.92;0.40;;;;;;;;;;5263585;28;20052;-81
2024/01/22 02:21:30;;;;;;;1.63;0.40;;;;;;;;;;5262856;28;20035;-79
2024/01/22 02:24:01;;;;;;;1.63;0.43;;;;;;;;;;5263411;28;20112;-81
2024/01/22 02:26:32;;;;;;;1.00;0.30;;;;;;;;;;5263226;28;20048;-81
2024/01/22 02:29:03;;;;;;;1.23;0.30;;;;;;;;;;5262328;28;20104;-80
2024/01/22 02:31:34;;;;;;;1.88;0.47;;;;;;;;;;5263267;28;20025;-80
2024/01/22 02:34:05;;;;;;;1.40;0.40;;;;;;;;;;5263229;28;20021;-81
2024/01/22 02:36:37;;;;;;;1.58;0.40;;;;;;;;;;5262349;28;20025;-80
2024/01/22 02:39:08;;;;;;;1.10;0.40;;;;;;;;;;5262900;28;20036;-80
2024/01/22 02:41:39;;;;;;;1.02;0.40;;;;;;;;;;5261911;28;20071;-80
2024/01/22 02:44:11;;;;;;;1.25;0.50;;;;;;;;;;5262905;28;20027;-80
2024/01/22 02:46:42;;;;;;;1.35;0.43;;;;;;;;;;5262970;28;20119;-81
2024/01/22 02:49:13;;;;;;;1.10;0.30;;;;;;;;;;5262207;28;20039;-81
2024/01/22 02:51:44;;;;;;;1.88;0.40;;;;;;;;;;5261647;28;20099;-81
2024/01/22 02:54:16;;;;;;;3.33;0.50;;;;;;;;;;5263008;28;20029;-81
2024/01/22 02:56:47;;;;;;;2.10;0.40;;;;;;;;;;5262003;28;20020;-81
2024/01/22 02:59:19;;;;;;;1.63;0.30;;;;;;;;;;5262458;28;20017;-81
2024/01/22 03:01:50;;;;;;;1.83;0.40;;;;;;;;;;5262476;28;20104;-80
2024/01/22 03:04:21;;;;;;;1.08;0.40;;;;;;;;;;5261322;28;20017;-80
2024/01/22 03:06:52;;;;;;;0.63;0.30;;;;;;;;;;5262625;28;20104;-80
2024/01/22 03:09:24;;;;;;;1.23;0.30;;;;;;;;;;5261967;28;20487;-80
2024/01/22 03:11:55;;;;;;;1.63;0.38;;;;;;;;;;5261832;28;20048;-80
2024/01/22 03:14:27;;;;;;;2.35;0.40;;;;;;;;;;5261939;28;20443;-80
2024/01/22 03:16:58;;;;;;;1.13;0.30;;;;;;;;;;5261352;28;20021;-80
2024/01/22 03:19:29;;;;;;;1.52;0.38;;;;;;;;;;5262398;28;20488;-78
2024/01/22 03:22:00;;;;;;;1.80;0.30;;;;;;;;;;5262363;28;20032;-79
2024/01/22 03:24:31;;;;;;;0.85;0.20;;;;;;;;;;5261118;28;20021;-79
2024/01/22 03:27:03;;;;;;;2.05;0.30;;;;;;;;;;5261958;28;20387;-79
2024/01/22 03:29:34;;;;;;;1.02;0.30;;;;;;;;;;5261754;28;20049;-80
2024/01/22 03:32:05;;;;;;;2.17;0.30;;;;;;;;;;5261321;28;20044;-80
2024/01/22 03:34:36;;;;;;;0.70;0.22;;;;;;;;;;5261817;28;20016;-81
2024/01/22 03:37:07;;;;;;;1.27;0.30;;;;;;;;;;5261691;28;20100;-80
2024/01/22 03:39:39;;;;;;;2.17;0.30;;;;;;;;;;5260753;28;20464;-81
2024/01/22 03:42:11;;;;;;;0.60;0.20;;;;;;;;;;5261412;28;20456;-80
2024/01/22 03:44:43;;;;;;;0.95;0.30;;;;;;;;;;5261460;28;20029;-81
2024/01/22 03:47:14;;;;;;;0.65;0.30;;;;;;;;;;5260893;28;20472;-81
2024/01/22 03:49:45;;;;;;;2.65;0.28;;;;;;;;;;5261528;28;20134;-81
2024/01/22 03:52:16;;;;;;;0.73;0.30;;;;;;;;;;5260205;28;20144;-81
2024/01/22 03:54:48;;;;;;;1.70;0.40;;;;;;;;;;5261164;28;20017;-80
2024/01/22 03:57:19;;;;;;;0.52;0.20;;;;;;;;;;5261212;28;20512;-80
2024/01/22 03:59:50;;;;;;;0.40;0.20;;;;;;;;;;5260145;28;20021;-81
2024/01/22 04:02:21;;;;;;;1.33;0.40;;;;;;;;;;5260516;28;20472;-81
2024/01/22 04:04:53;;;;;;;0.60;0.20;;;;;;;;;;5261192;28;20486;-80
2024/01/22 04:07:25;;;;;;;1.98;0.30;;;;;;;;;;5260319;28;20094;-80
2024/01/22 04:09:56;;;;;;;0.60;0.20;;;;;;;;;;5261610;28;20017;-80
2024/01/22 04:12:27;;;;;;;0.57;0.17;;;;;;;;;;5261318;28;20056;-79
2024/01/22 04:14:58;;;;;;;0.55;0.20;;;;;;;;;;5260354;28;20025;-79
2024/01/22 04:17:30;;;;;;;1.50;0.30;;;;;;;;;;5260905;28;20120;-79
2024/01/22 04:20:01;;;;;;;1.35;0.30;;;;;;;;;;5260229;28;20456;-80
2024/01/22 04:22:32;;;;;;;0.50;0.20;;;;;;;;;;5261103;28;20459;-80
2024/01/22 04:25:03;;;;;;;0.80;0.20;;;;;;;;;;5260935;28;20380;-80
2024/01/22 04:27:35;;;;;;;1.48;0.30;;;;;;;;;;5260082;28;20025;-80
2024/01/22 04:30:07;;;;;;;1.73;0.28;;;;;;;;;;5261098;28;20518;-80
2024/01/22 04:32:38;;;;;;;0.77;0.20;;;;;;;;;;5261096;28;20044;-81
2024/01/22 04:35:09;;;;;;;0.65;0.20;;;;;;;;;;5260135;28;20074;-81
2024/01/22 04:37:40;;;;;;;1.38;0.10;;;;;;;;;;5260946;28;20040;-80
2024/01/22 04:40:13;;;;;;;0.85;0.20;;;;;;;;;;5260905;28;20017;-81
2024/01/22 04:42:44;;;;;;;0.38;0.10;;;;;;;;;;5260245;28;20515;-80
2024/01/22 04:45:15;;;;;;;1.30;0.20;;;;;;;;;;5260903;28;20045;-80
2024/01/22 04:47:46;;;;;;;1.48;0.10;;;;;;;;;;5260888;28;20020;-81
2024/01/22 04:50:18;;;;;;;0.45;0.10;;;;;;;;;;5260566;28;20025;-81
2024/01/22 04:52:49;;;;;;;0.52;0.15;;;;;;;;;;5260340;28;20108;-80
2024/01/22 04:55:20;;;;;;;0.80;0.20;;;;;;;;;;5260430;28;20377;-81
2024/01/22 04:57:51;;;;;;;0.75;0.20;;;;;;;;;;5261958;28;20071;-80
2024/01/22 05:00:22;;;;;;;1.52;0.20;;;;;;;;;;5263725;28;20029;-81
2024/01/22 05:02:53;;;;;;;1.08;0.10;;;;;;;;;;5263064;28;20028;-81
2024/01/22 05:05:25;;;;;;;1.05;0.20;;;;;;;;;;5262749;28;20032;-81
2024/01/22 05:07:56;;;;;;;0.38;0.10;;;;;;;;;;5263372;28;20112;-80
2024/01/22 05:10:27;;;;;;;0.75;0.10;;;;;;;;;;5263943;28;20028;-82
2024/01/22 05:12:58;;;;;;;1.48;0.20;;;;;;;;;;5263244;28;20060;-82
2024/01/22 05:15:29;;;;;;;0.80;0.10;;;;;;;;;;5266110;28;20029;-80
2024/01/22 05:18:01;;;;;;;1.17;0.20;;;;;;;;;;5267358;28;20032;-81
2024/01/22 05:20:32;;;;;;;0.40;0.10;;;;;;;;;;5267097;28;20035;-80
2024/01/22 05:23:03;;;;;;;0.70;0.30;;;;;;;;;;5266568;28;20024;-80
2024/01/22 05:25:34;;;;;;;0.93;0.20;;;;;;;;;;5265633;28;20112;-80
2024/01/22 05:28:05;;;;;;;1.15;0.20;;;;;;;;;;5266006;28;20384;-80
2024/01/22 05:30:37;;;;;;;1.23;0.20;;;;;;;;;;5263979;28;20033;-80
2024/01/22 05:33:08;;;;;;;1.38;0.10;;;;;;;;;;5264451;28;20096;-80
2024/01/22 05:35:39;;;;;;;1.00;0.10;;;;;;;;;;5264353;28;20052;-80
2024/01/22 05:38:10;;;;;;;0.65;0.20;;;;;;;;;;5263366;28;20017;-80
2024/01/22 05:40:41;;;;;;;1.83;0.20;;;;;;;;;;5264033;28;20047;-80
2024/01/22 05:43:13;;;;;;;1.65;0.20;;;;;;;;;;5264221;28;20028;-81
2024/01/22 05:45:44;;;;;;;0.50;0.10;;;;;;;;;;5263365;28;20033;-80
2024/01/22 05:48:15;;;;;;;1.16;0.10;;;;;;;;;;5264000;28;20081;-81
2024/01/22 05:50:46;;;;;;;1.85;0.15;;;;;;;;;;5263787;28;20017;-79
2024/01/22 05:53:17;;;;;;;1.02;0.10;;;;;;;;;;5263031;28;20529;-80
2024/01/22 05:55:49;;;;;;;1.02;0.20;;;;;;;;;;5263995;28;20052;-80
2024/01/22 05:58:20;;;;;;;1.02;0.10;;;;;;;;;;5263843;28;20090;-78
2024/01/22 06:00:51;;;;;;;0.82;0.20;;;;;;;;;;5262918;28;20021;-80
2024/01/22 06:03:22;;;;;;;1.48;0.43;;;;;;;;;;5263162;28;20013;-80
2024/01/22 06:05:54;;;;;;;1.15;0.20;;;;;;;;;;5263201;28;20036;-80
2024/01/22 06:08:25;;;;;;;1.27;0.22;;;;;;;;;;5263111;28;20017;-81
2024/01/22 06:10:56;;;;;;;2.55;0.20;;;;;;;;;;5263743;28;20460;-80
2024/01/22 06:13:27;;;;;;;1.00;0.30;;;;;;;;;;5262434;28;20024;-80
2024/01/22 06:15:58;;;;;;;1.32;0.20;;;;;;;;;;5263271;28;20029;-79
2024/01/22 06:18:29;;;;;;;2.15;0.20;;;;;;;;;;5263507;28;20024;-81
2024/01/22 06:21:01;;;;;;;1.08;0.20;;;;;;;;;;5262676;28;20082;-78
2024/01/22 06:23:32;;;;;;;1.40;0.20;;;;;;;;;;5263109;28;20017;-80
2024/01/22 06:26:05;;;;;;;1.58;0.10;;;;;;;;;;5262883;28;20037;-80
2024/01/22 06:28:36;;;;;;;2.53;0.17;;;;;;;;;;5262037;28;20017;-79
2024/01/22 06:31:07;;;;;;;1.15;0.10;;;;;;;;;;5262925;28;20028;-79
2024/01/22 06:33:38;;;;;;;1.55;0.20;;;;;;;;;;5262422;28;20376;-80
2024/01/22 06:36:09;;;;;;;0.77;0.20;;;;;;;;;;5263025;28;20103;-80
2024/01/22 06:38:41;;;;;;;1.10;0.10;;;;;;;;;;5263007;28;20028;-80
2024/01/22 06:41:12;;;;;;;1.52;0.20;;;;;;;;;;5262130;28;20109;-79
2024/01/22 06:43:43;;;;;;;0.43;0.20;;;;;;;;;;5262717;28;20021;-80
2024/01/22 06:46:15;;;;;;;0.90;0.10;;;;;;;;;;5262628;28;20380;-79
2024/01/22 06:48:47;;;;;;;0.63;0.10;;;;;;;;;;5262032;28;20013;-80
2024/01/22 06:51:18;;;;;;;0.55;0.10;;;;;;;;;;5263839;28;20057;-80
2024/01/22 06:53:50;;;;;;;0.57;0.10;;;;;;;;;;5265259;28;20508;-80
2024/01/22 06:56:21;;;;;;;1.35;0.10;;;;;;;;;;5261865;28;20476;-81
2024/01/22 06:58:54;;;;;;;0.50;0.10;;;;;;;;;;5263031;28;20051;-80
2024/01/22 07:01:28;;;;;;;0.40;0.10;;;;;;;;;;5262278;28;20047;-81
2024/01/22 07:04:00;;;;;;;0.68;0.13;;;;;;;;;;5261313;28;20017;-81
2024/01/22 07:06:31;;;;;;;0.38;0.10;;;;;;;;;;5262448;28;20024;-82
2024/01/22 07:09:03;;;;;;;0.60;0.10;;;;;;;;;;5261933;28;20021;-82
2024/01/22 07:11:34;;;;;;;0.43;0.10;;;;;;;;;;5262298;28;20025;-82
2024/01/22 07:14:05;;;;;;;1.70;0.20;;;;;;;;;;5262206;28;20411;-82
2024/01/22 07:16:36;;;;;;;0.50;0.20;;;;;;;;;;5261364;28;20499;-82
2024/01/22 07:19:07;;;;;;;2.95;0.30;;;;;;;;;;5262336;28;20410;-82
2024/01/22 07:21:39;;;;;;;1.98;0.30;;;;;;;;;;5262249;28;20100;-81
2024/01/22 07:24:10;;;;;;;1.25;0.20;;;;;;;;;;5261458;28;20024;-81
2024/01/22 07:26:42;;;;;;;1.42;0.20;;;;;;;;;;5262099;28;20029;-82
2024/01/22 07:29:13;;;;;;;2.25;0.30;;;;;;;;;;5262105;28;20016;-82
2024/01/22 07:31:44;;;;;;;1.27;0.30;;;;;;;;;;5261424;28;20027;-81
2024/01/22 07:34:15;;;;;;;4.47;0.38;;;;;;;;;;5261985;28;20021;-82
2024/01/22 07:36:46;;;;;;;2.63;0.30;;;;;;;;;;5261553;28;20040;-81
2024/01/22 07:39:18;;;;;;;3.42;0.30;;;;;;;;;;5261090;28;20040;-82
2024/01/22 07:41:49;;;;;;;3.90;0.30;;;;;;;;;;5261849;28;20114;-81
2024/01/22 07:44:20;;;;;;;1.55;0.28;;;;;;;;;;5260963;28;20057;-81
2024/01/22 07:46:51;;;;;;;1.85;0.30;;;;;;;;;;5260876;28;20036;-80
2024/01/22 07:49:23;;;;;;;2.53;0.20;;;;;;;;;;5261415;28;20380;-79
2024/01/22 07:51:54;;;;;;;2.30;0.30;;;;;;;;;;5261144;28;20029;-79
2024/01/22 07:54:25;;;;;;;4.53;0.40;;;;;;;;;;5260881;28;20048;-80
2024/01/22 07:56:56;;;;;;;5.02;0.44;;;;;;;;;;5261440;28;20451;-79
2024/01/22 07:59:27;;;;;;;4.70;0.57;;;;;;;;;;5260632;28;20372;-77
2024/01/22 08:01:58;;;;;;;5.30;0.50;;;;;;;;;;5261375;28;20056;-79
2024/01/22 08:04:30;;;;;;;3.03;0.43;;;;;;;;;;5261174;28;20025;-78
2024/01/22 08:07:03;;;;;;;5.03;0.55;;;;;;;;;;5260619;28;20021;-78
2024/01/22 08:09:34;;;;;;;8.23;0.55;;;;;;;;;;5261353;28;20119;-80
2024/01/22 08:12:05;;;;;;;4.15;0.70;;;;;;;;;;5260238;28;20171;-80
2024/01/22 08:14:36;;;;;;;8.10;0.98;;;;;;;;;;5261154;28;20487;-80
2024/01/22 08:17:08;;;;;;;6.38;0.85;;;;;;;;;;5260924;28;20020;-78
2024/01/22 08:19:39;;;;;;;13.13;1.55;;;;;;;;;;5260553;28;20025;-78
2024/01/22 08:22:10;;;;;;;10.15;0.95;;;;;;;;;;5260927;28;20028;-79
2024/01/22 08:24:41;;;;;;;12.60;1.63;;;;;;;;;;5260986;28;20025;-79
2024/01/22 08:27:12;;;;;;;11.13;0.95;;;;;;;;;;5256808;28;20052;-77
2024/01/22 08:29:43;;;;;;;11.02;1.98;;;;;;;;;;5258681;28;20013;-77
2024/01/22 08:32:15;;;;;;;10.18;0.90;;;;;;;;;;5260458;28;20020;-77
2024/01/22 08:34:46;;;;;;;9.13;0.90;;;;;;;;;;5259901;28;20028;-75
2024/01/22 08:37:17;;;;;;;8.40;0.77;;;;;;;;;;5259542;28;20083;-77
2024/01/22 08:39:48;;;;;;;12.60;1.88;;;;;;;;;;5260833;28;20068;-77
2024/01/22 08:42:19;;;;;;;7.15;0.80;;;;;;;;;;5259628;28;20025;-79
2024/01/22 08:44:50;;;;;;;7.70;0.80;;;;;;;;;;5260277;28;20029;-75
2024/01/22 08:47:22;;;;;;;11.55;0.90;;;;;;;;;;5259429;28;20036;-75
2024/01/22 08:49:53;;;;;;;8.80;1.15;;;;;;;;;;5263612;28;20009;-73
2024/01/22 08:52:24;;;;;;;6.10;1.00;;;;;;;;;;5264308;28;20468;-75
2024/01/22 08:54:55;;;;;;;9.05;0.80;;;;;;;;;;5264190;28;20059;-76
2024/01/22 08:57:26;;;;;;;8.82;1.08;;;;;;;;;;5264362;28;20028;-76
2024/01/22 08:59:58;;;;;;;6.93;0.90;;;;;;;;;;5264964;28;20460;-77
2024/01/22 09:02:29;;;;;;;9.00;1.15;;;;;;;;;;5263895;28;20017;-76
2024/01/22 09:05:00;;;;;;;5.36;0.50;;;;;;;;;;5264146;28;20036;-77
2024/01/22 09:07:31;;;;;;;8.73;0.75;;;;;;;;;;5264230;28;20020;-76
2024/01/22 09:10:06;;;;;;;8.68;0.80;;;;;;;;;;5264007;28;20349;-75
2024/01/22 09:12:38;;;;;;;8.40;1.23;;;;;;;;;;5264523;28;20017;-75
2024/01/22 09:15:10;;;;;;;7.75;0.90;;;;;;;;;;5264487;28;20029;-75
2024/01/22 09:17:41;;;;;;;8.80;0.90;;;;;;;;;;5263926;28;20024;-76
2024/01/22 09:20:13;;;;;;;12.20;1.00;;;;;;;;;;5263843;28;20025;-74
2024/01/22 09:22:44;;;;;;;9.88;1.00;;;;;;;;;;5263546;28;20017;-76
2024/01/22 09:25:15;;;;;;;10.44;1.30;;;;;;;;;;5264200;28;20103;-75
2024/01/22 09:27:47;;;;;;;7.40;0.80;;;;;;;;;;5264229;28;20014;-77
2024/01/22 09:30:19;;;;;;;9.27;0.77;;;;;;;;;;5263635;28;20052;-76
2024/01/22 09:32:51;;;;;;;9.30;1.48;;;;;;;;;;5264180;28;20040;-75
2024/01/22 09:35:22;;;;;;;8.82;1.10;;;;;;;;;;5263786;28;20496;-75
2024/01/22 09:37:54;;;;;;;8.40;0.80;;;;;;;;;;5263361;28;20021;-75
2024/01/22 09:40:26;;;;;;;5.70;1.02;;;;;;;;;;5263520;28;20029;-77
2024/01/22 09:43:04;;;;;;;7.35;0.82;;;;;;;;;;5264250;28;20013;-77
2024/01/22 09:45:35;;;;;;;4.13;0.60;;;;;;;;;;5263006;28;20040;-77
2024/01/22 09:48:08;;;;;;;9.45;0.88;;;;;;;;;;5264011;28;20496;-78
2024/01/22 09:50:39;;;;;;;4.60;0.63;;;;;;;;;;5262895;28;20025;-79
2024/01/22 09:53:11;;;;;;;4.57;0.70;;;;;;;;;;5263793;28;20028;-78
2024/01/22 09:55:42;;;;;;;4.30;0.52;;;;;;;;;;5263589;28;20051;-79
2024/01/22 09:58:19;;;;;;;7.22;0.80;;;;;;;;;;5262642;28;20045;-78
2024/01/22 10:00:51;;;;;;;4.97;0.50;;;;;;;;;;5263256;28;20514;-78
2024/01/22 10:03:23;;;;;;;3.17;0.50;;;;;;;;;;5262903;28;20025;-79
2024/01/22 10:05:55;;;;;;;3.33;0.47;;;;;;;;;;5262651;28;20021;-78
2024/01/22 10:08:26;;;;;;;7.25;0.60;;;;;;;;;;5263007;28;20353;-79
2024/01/22 10:10:58;;;;;;;9.18;0.77;;;;;;;;;;5263372;28;20049;-79
2024/01/22 10:13:29;;;;;;;5.50;0.50;;;;;;;;;;5262569;28;20024;-80
2024/01/22 10:16:10;;;;;;;4.75;0.60;;;;;;;;;;5263347;28;20020;-79
2024/01/22 10:18:54;;;;;;;2.85;0.47;;;;;;;;;;5262538;28;20058;-77
2024/01/22 10:21:26;;;;;;;3.35;0.40;;;;;;;;;;5262820;28;20075;-76
2024/01/22 10:23:58;;;;;;;4.20;0.70;;;;;;;;;;5263571;28;20375;-77
2024/01/22 10:26:30;;;;;;;8.63;0.98;;;;;;;;;;5262387;28;20361;-77
2024/01/22 10:29:15;;;;;;;10.65;1.30;;;;;;;;;;5263119;28;20036;-78
2024/01/22 10:31:56;;;;;;;9.98;0.98;;;;;;;;;;5263177;28;20020;-77
2024/01/22 10:34:28;;;;;;;13.70;1.73;;;;;;;;;;5261839;28;20066;-77
2024/01/22 10:37:06;;;;;;;14.00;1.73;;;;;;;;;;5263058;28;20052;-75
2024/01/22 10:39:39;;;;;;;12.77;1.80;;;;;;;;;;5263167;28;20541;-76
2024/01/22 10:42:14;;;;;;;14.32;1.80;;;;;;;;;;5262038;28;20506;-76
2024/01/22 10:44:46;;;;;;;12.45;1.98;;;;;;;;;;5262656;28;20028;-77
2024/01/22 10:47:17;;;;;;;17.52;2.33;;;;;;;;;;5261980;28;20029;-75
2024/01/22 10:49:51;;;;;;;15.48;2.42;;;;;;;;;;5262745;28;20017;-75
2024/01/22 10:52:23;;;;;;;14.57;2.00;;;;;;;;;;5258320;28;20029;-75
2024/01/22 10:54:54;;;;;;;17.58;2.00;;;;;;;;;;5261453;28;20056;-75
2024/01/22 10:57:29;;;;;;;13.45;1.92;;;;;;;;;;5273370;28;20020;-75
2024/01/22 11:00:02;;;;;;;13.20;1.80;;;;;;;;;;5261292;28;20392;-75
2024/01/22 11:02:34;;;;;;;13.30;1.75;;;;;;;;;;5260453;28;20052;-76
2024/01/22 11:05:14;;;;;;;13.40;2.15;;;;;;;;;;5257520;28;20021;-75
2024/01/22 11:07:47;;;;;;;17.00;2.58;;;;;;;;;;5259878;28;20021;-76
2024/01/22 11:10:18;;;;;;;13.27;2.08;;;;;;;;;;5260426;28;21030;-76
2024/01/22 11:12:51;;;;;;;15.93;2.10;;;;;;;;;;5260218;28;20052;-77
2024/01/22 11:15:22;;;;;;;17.88;2.83;;;;;;;;;;5259520;28;20009;-78
2024/01/22 11:17:54;;;;;;;13.32;2.50;;;;;;;;;;5260401;28;20032;-77
2024/01/22 11:20:25;;;;;;;17.27;2.30;;;;;;;;;;5255674;28;20016;-76
2024/01/22 11:22:58;;;;;;;18.42;2.72;;;;;;;;;;5260309;28;20025;-77
2024/01/22 11:25:30;;;;;;;19.08;3.72;;;;;;;;;;5260977;28;20061;-76
2024/01/22 11:28:02;;;;;;;19.20;3.22;;;;;;;;;;5260560;28;20063;-76
2024/01/22 11:30:35;;;;;;;15.85;2.20;;;;;;;;;;5259751;28;20372;-76
2024/01/22 11:33:28;;;;;;;20.75;2.97;;;;;;;;;;5260642;28;20025;-77
2024/01/22 11:35:59;;;;;;;25.77;3.50;;;;;;;;;;5260550;28;20027;-77
2024/01/22 11:38:51;;;;;;;22.45;3.03;;;;;;;;;;5260110;28;20104;-77
2024/01/22 11:41:32;;;;;;;21.90;3.58;;;;;;;;;;5259967;28;20143;-79
2024/01/22 11:44:04;;;;;;;17.25;3.38;;;;;;;;;;5259589;28;20109;-78
2024/01/22 11:46:35;;;;;;;22.02;3.50;;;;;;;;;;5260552;28;20103;-80
2024/01/22 11:49:09;;;;;;;22.52;3.50;;;;;;;;;;5260982;28;20016;-79
2024/01/22 11:51:40;;;;;;;20.80;2.90;;;;;;;;;;5261051;28;20075;-78
2024/01/22 11:54:12;;;;;;;18.58;3.22;;;;;;;;;;5253038;28;20053;-78
2024/01/22 11:56:43;;;;;;;22.52;3.92;;;;;;;;;;5248921;28;20024;-79
2024/01/22 11:59:15;;;;;;;26.35;4.00;;;;;;;;;;5259831;28;20028;-79
2024/01/22 12:01:46;;;;;;;24.02;3.95;;;;;;;;;;5260324;28;20108;-79
2024/01/22 12:04:17;;;;;;;29.83;4.45;;;;;;;;;;5259052;28;20024;-79
2024/01/22 12:06:49;;;;;;;24.50;3.25;;;;;;;;;;5260594;28;20372;-77
2024/01/22 12:09:21;;;;;;;22.10;4.40;;;;;;;;;;5260986;28;20017;-80
2024/01/22 12:11:53;;;;;;;20.58;4.57;;;;;;;;;;5260418;28;20491;-77
2024/01/22 12:14:24;;;;;;;20.42;4.18;;;;;;;;;;5260664;28;20506;-79
2024/01/22 12:17:13;;;;;;;22.42;3.78;;;;;;;;;;5260949;28;20052;-78
2024/01/22 12:19:47;;;;;;;23.40;3.40;;;;;;;;;;5259315;28;20094;-78
2024/01/22 12:22:18;;;;;;;25.67;3.53;;;;;;;;;;5260713;28;20024;-76
2024/01/22 12:25:09;;;;;;;19.15;3.33;;;;;;;;;;5260498;28;20456;-79
2024/01/22 12:27:40;;;;;;;23.08;3.40;;;;;;;;;;5260305;28;20630;-79
2024/01/22 12:30:15;;;;;;;19.25;2.80;;;;;;;;;;5262312;28;20017;-77
2024/01/22 12:32:52;;;;;;;15.30;3.13;;;;;;;;;;5262679;28;20067;-79
2024/01/22 12:35:24;;;;;;;20.25;3.38;;;;;;;;;;5260431;28;20013;-79
2024/01/22 12:37:55;;;;;;;21.70;2.78;;;;;;;;;;5261180;28;20025;-79
2024/01/22 12:40:26;;;;;;;14.90;3.15;;;;;;;;;;5259461;28;20120;-78
2024/01/22 12:42:59;;;;;;;20.73;2.67;;;;;;;;;;5260317;28;20032;-78
2024/01/22 12:45:30;;;;;;;16.58;2.88;;;;;;;;;;5259381;28;20109;-80
2024/01/22 12:48:01;;;;;;;16.95;3.22;;;;;;;;;;5259794;28;20021;-79
2024/01/22 12:50:32;;;;;;;16.77;2.45;;;;;;;;;;5260947;28;20419;-79
2024/01/22 12:53:04;;;;;;;20.77;4.47;;;;;;;;;;5260879;28;20024;-78
2024/01/22 12:55:35;;;;;;;19.83;4.40;;;;;;;;;;5280684;28;20040;-79
2024/01/22 12:58:06;;;;;;;20.02;3.65;;;;;;;;;;5281333;28;20052;-79
2024/01/22 13:00:37;;;;;;;18.05;3.80;;;;;;;;;;5280753;28;20028;-74
2024/01/22 13:03:08;;;;;;;17.10;3.46;;;;;;;;;;5281505;28;20017;-77
2024/01/22 13:05:40;;;;;;;19.48;3.42;;;;;;;;;;5281437;28;20032;-78
2024/01/22 13:08:12;;;;;;;19.83;3.80;;;;;;;;;;5280683;28;20078;-79
2024/01/22 13:10:43;;;;;;;19.83;3.55;;;;;;;;;;5281401;28;20021;-78
2024/01/22 13:13:15;;;;;;;17.05;3.85;;;;;;;;;;5281120;28;20021;-78
2024/01/22 13:15:46;;;;;;;17.88;3.03;;;;;;;;;;5261980;28;20507;-78
2024/01/22 13:18:18;;;;;;;19.02;3.28;;;;;;;;;;5260505;28;20031;-78
2024/01/22 13:20:49;;;;;;;16.73;2.85;;;;;;;;;;5260013;28;20044;-79
2024/01/22 13:23:21;;;;;;;14.45;2.45;;;;;;;;;;5259340;28;20091;-80
2024/01/22 13:25:52;;;;;;;21.15;4.30;;;;;;;;;;5260324;28;20037;-79
2024/01/22 13:28:23;;;;;;;17.65;2.72;;;;;;;;;;5259607;28;20017;-78
2024/01/22 13:30:54;;;;;;;17.98;3.13;;;;;;;;;;5259574;28;20468;-79
2024/01/22 13:33:26;;;;;;;15.40;3.00;;;;;;;;;;5259242;28;20117;-79
2024/01/22 13:35:57;;;;;;;21.77;3.55;;;;;;;;;;5260974;28;20096;-79
2024/01/22 13:38:28;;;;;;;18.95;3.45;;;;;;;;;;5263755;28;20035;-74
2024/01/22 13:41:03;;;;;;;17.73;2.58;;;;;;;;;;5264305;28;20067;-79
2024/01/22 13:43:34;;;;;;;15.15;2.85;;;;;;;;;;5261171;28;20039;-80
2024/01/22 13:46:07;;;;;;;14.38;2.40;;;;;;;;;;5263615;28;20025;-79
2024/01/22 13:48:39;;;;;;;15.30;2.33;;;;;;;;;;5264277;28;20062;-79
2024/01/22 13:51:10;;;;;;;17.92;2.17;;;;;;;;;;5263655;28;20463;-79
2024/01/22 13:53:44;;;;;;;11.70;1.80;;;;;;;;;;5263939;28;20049;-79
2024/01/22 13:56:15;;;;;;;14.93;2.63;;;;;;;;;;5263985;28;20082;-80
2024/01/22 13:58:46;;;;;;;10.82;1.88;;;;;;;;;;5262957;28;20021;-78
2024/01/22 14:01:18;;;;;;;15.93;2.40;;;;;;;;;;5267119;28;20028;-78
2024/01/22 14:03:49;;;;;;;15.95;2.53;;;;;;;;;;5283208;28;20462;-79
2024/01/22 14:06:20;;;;;;;13.63;2.15;;;;;;;;;;5283867;28;20040;-78
2024/01/22 14:08:52;;;;;;;15.18;2.15;;;;;;;;;;5284343;28;20150;-77
2024/01/22 14:11:23;;;;;;;17.30;2.17;;;;;;;;;;5280965;28;20020;-79
2024/01/22 14:13:54;;;;;;;12.02;2.28;;;;;;;;;;5283848;28;20027;-78
2024/01/22 14:16:25;;;;;;;13.20;2.35;;;;;;;;;;5282758;28;20055;-77
2024/01/22 14:18:56;;;;;;;16.23;2.75;;;;;;;;;;5281331;28;20017;-74
2024/01/22 14:21:27;;;;;;;13.80;2.35;;;;;;;;;;5283289;28;20028;-78
2024/01/22 14:23:59;;;;;;;16.15;2.05;;;;;;;;;;5286460;28;20024;-78
2024/01/22 14:26:31;;;;;;;10.95;1.65;;;;;;;;;;5285087;28;20029;-77
2024/01/22 14:29:03;;;;;;;15.05;2.10;;;;;;;;;;5283995;28;20113;-79
2024/01/22 14:31:34;;;;;;;12.20;2.30;;;;;;;;;;5283881;28;20024;-77
2024/01/22 14:34:05;;;;;;;11.07;2.08;;;;;;;;;;5283070;28;20017;-78
2024/01/22 14:36:36;;;;;;;12.95;1.95;;;;;;;;;;5284127;28;20036;-76
2024/01/22 14:39:10;;;;;;;17.30;2.55;;;;;;;;;;5283603;28;20017;-79
2024/01/22 14:41:41;;;;;;;13.98;2.60;;;;;;;;;;5284226;28;20028;-81
2024/01/22 14:44:13;;;;;;;11.65;1.67;;;;;;;;;;5283469;28;20021;-79
2024/01/22 14:46:45;;;;;;;12.77;1.80;;;;;;;;;;5282754;28;20107;-79
2024/01/22 14:49:17;;;;;;;14.18;1.77;;;;;;;;;;5284071;28;20490;-79
2024/01/22 14:51:48;;;;;;;13.23;1.77;;;;;;;;;;5283775;28;20020;-80
2024/01/22 14:54:21;;;;;;;9.82;1.25;;;;;;;;;;5282713;28;20087;-79
2024/01/22 14:56:52;;;;;;;16.20;2.25;;;;;;;;;;5283753;28;20017;-80
2024/01/22 14:59:24;;;;;;;16.83;1.90;;;;;;;;;;5283323;28;20108;-79
2024/01/22 15:01:55;;;;;;;15.30;1.86;;;;;;;;;;5283204;28;20025;-79
2024/01/22 15:04:26;;;;;;;15.63;1.80;;;;;;;;;;5282888;28;20017;-79